Nearby METAR Reports

 

KBFI - Seattle/Boeing, Washington, USA
Distance from station: S 10mi, 16km
Updated: Fri, 17-Nov-2017 10:53am PST
Mostly cloudy
Mostly cloudy
 Wind from SW
Wind: SW 5 mph , 7 km/h
Temperature: 46°F , 8°C
Wind Chill: 44°F , 7°C
Dew Point: 39°F , 4°C
Humidity: 76%
Barometer: 30.09 inHg , 1019 hPa
Clouds: Mostly cloudy
Visibility: 10 miles , 16 km
Cloud details: Mostly cloudy 2200 ft
2017/11/17 18:53 KBFI 171853Z 23004KT 10SM BKN022 08/04 A3009 RMK AO2 SLP189 T00830044 $
KRNT - Renton, Washington, USA
Distance from station: SSE 14mi, 23km
Updated: Fri, 17-Nov-2017 10:53am PST
Overcast
Overcast
 Wind from SSE
Wind: SSE 7 mph , 11 km/h
Temperature: 46°F , 8°C
Wind Chill: 42°F , 6°C
Dew Point: 39°F , 4°C
Humidity: 76%
Barometer: 30.09 inHg , 1019 hPa
Clouds: Overcast
Visibility: 10 miles , 16 km
Cloud details: Mostly cloudy 2500 ft
Overcast 3100 ft
2017/11/17 18:53 KRNT 171853Z 16006KT 10SM BKN025 OVC031 08/04 A3009 RMK AO2 SLP193 T00830044
 
KPAE - Everett, Washington, USA
Distance from station: N 15mi, 25km
Updated: Fri, 17-Nov-2017 10:53am PST
Few Clouds
Few Clouds
 Wind from SSE
Wind: SSE 13 mph , 20 km/h
Temperature: 45°F , 7°C
Wind Chill: 39°F , 4°C
Dew Point: 37°F , 3°C
Humidity: 76%
Barometer: 30.07 inHg , 1018.3 hPa
Clouds: Few Clouds
Visibility: 10 miles , 16 km
Cloud details: Few Clouds 8000 ft
2017/11/17 18:53 KPAE 171853Z 16011KT 10SM FEW080 07/03 A3007 RMK AO2 SLP187 T00670028
KSEA - Seattle/Metro, Washington, USA
Distance from station: S 17mi, 27km
Updated: Fri, 17-Nov-2017 10:53am PST
Mostly cloudy
Mostly cloudy
 Wind from SSW
Wind: SSW 16 mph , 26 km/h, Gust: 22 mph , 35 km/h
Temperature: 46°F , 8°C
Wind Chill: 39°F , 4°C
Dew Point: 39°F , 4°C
Humidity: 76%
Barometer: 30.08 inHg , 1018.6 hPa
Clouds: Mostly cloudy
Visibility: 10 miles , 16 km
Cloud details: Mostly cloudy 1800 ft
Mostly cloudy 2500 ft
2017/11/17 18:53 KSEA 171853Z 21014G19KT 10SM BKN018 BKN025 08/04 A3008 RMK AO2 SLP193 T00780039
 
KPWT - Bremerton Ntnl, Washington, USA
Distance from station: SW 24mi, 39km
Updated: Fri, 17-Nov-2017 10:56am PST
Overcast
Overcast
 Wind from SW
Wind: SW 8 mph , 13 km/h
Temperature: 45°F , 7°C
Wind Chill: 41°F , 5°C
Dew Point: 41°F , 5°C
Humidity: 87%
Barometer: 30.08 inHg , 1018.6 hPa
Clouds: Overcast
Visibility: 10 miles , 16 km
Cloud details: Overcast 1100 ft
2017/11/17 18:56 KPWT 171856Z AUTO 23007KT 10SM OVC011 07/05 A3008 RMK AO2 SLP204 P0001 T00670050
KTIW - Tacoma, Washington, USA
Distance from station: SSW 32mi, 52km
Updated: Fri, 17-Nov-2017 10:53am PST
Partly cloudy
Partly cloudy
 Wind from S
Wind: S 14 mph , 22 km/h, Gust: 21 mph , 33 km/h
Temperature: 46°F , 8°C
Wind Chill: 40°F , 4°C
Dew Point: 39°F , 4°C
Humidity: 76%
Barometer: 30.09 inHg , 1019 hPa
Clouds: Partly cloudy
Visibility: 10 miles , 16 km
Cloud details: Partly cloudy 1500 ft
2017/11/17 18:53 KTIW 171853Z 19012G18KT 10SM SCT015 08/04 A3009 RMK AO2 SLP191 T00780044
 
KAWO - Arlington Muni, Washington, USA
Distance from station: N 33mi, 54km
Updated: Fri, 17-Nov-2017 10:56am PST
Overcast
Overcast
 Wind from SSW
Wind: SSW 9 mph , 15 km/h
Temperature: 46°F , 8°C
Wind Chill: 41°F , 5°C
Dew Point: 39°F , 4°C
Humidity: 76%
Barometer: 30.08 inHg , 1018.6 hPa
Clouds: Overcast
Visibility: 10 miles , 16 km
Cloud details: Partly cloudy 1700 ft
Mostly cloudy 4600 ft
Overcast 8000 ft
2017/11/17 18:56 KAWO 171856Z AUTO 20008KT 10SM SCT017 BKN046 OVC080 08/04 A3008 RMK AO2 SLP191 T00780039
KTCM - Tacoma/Mc Chord, Washington, USA
Distance from station: S 41mi, 65km
Updated: Fri, 17-Nov-2017 10:58am PST
Partly cloudy
Partly cloudy
 Wind from SW
Wind: SW 13 mph , 20 km/h
Temperature: 48°F , 9°C
Wind Chill: 43°F , 6°C
Dew Point: 45°F , 7°C
Humidity: 87%
Barometer: 30.10 inHg , 1019.3 hPa
Clouds: Partly cloudy
Visibility: 10 miles , 16 km
Cloud details: Few Clouds 1900 ft
Partly cloudy 3100 ft
2017/11/17 18:58 KTCM 171858Z AUTO 22011KT 10SM FEW019 SCT031 09/07 A3010 RMK AO2 SLP198 T00880066 $
 
KPLU - Puyallup/Thun, Washington, USA
Distance from station: S 41mi, 66km
Updated: Fri, 17-Nov-2017 10:55am PST
Mostly cloudy
Mostly cloudy
 Wind from varies
Wind: varies 7 mph , 11 km/h, Gust: 14 mph , 22 km/h
Temperature: 48°F , 9°C
Wind Chill: 45°F , 7°C
Dew Point: 41°F , 5°C
Humidity: 76%
Barometer: 30.10 inHg , 1019.3 hPa
Clouds: Mostly cloudy
Visibility: 10 miles , 16 km
Cloud details: Partly cloudy 2100 ft
Partly cloudy 2700 ft
Mostly cloudy 5500 ft
2017/11/17 18:55 KPLU 171855Z AUTO VRB06G12KT 10SM SCT021 SCT027 BKN055 09/05 A3010 RMK AO2
KGRF - Fort Lewis/Gray, Washington, USA
Distance from station: SSW 45mi, 72km
Updated: Fri, 17-Nov-2017 10:58am PST
Few Clouds
Few Clouds
 Wind from SSE
Wind: SSE 13 mph , 20 km/h
Temperature: 46°F , 8°C
Wind Chill: 40°F , 4°C
Dew Point: 46°F , 8°C
Humidity: 100%
Barometer: 30.10 inHg , 1019.3 hPa
Clouds: Few Clouds
Visibility: 10 miles , 16 km
Cloud details: Few Clouds 1900 ft
2017/11/17 18:58 KGRF 171858Z AUTO 16011KT 10SM FEW019 08/08 A3010 RMK AO2 SLP198 T00810075 $
 
KNUW - Whidbey Is. Nas, Washington, USA
Distance from station: NNW 48mi, 77km
Updated: Fri, 17-Nov-2017 10:56am PST
Mostly cloudy
Mostly cloudy
 Wind from S
Wind: S 9 mph , 15 km/h
Temperature: 52°F , 11°C
Dew Point: 37°F , 3°C
Humidity: 58%
Barometer: 30.10 inHg , 1019.3 hPa
Clouds: Mostly cloudy
Visibility: 10 miles , 16 km
Cloud details: Partly cloudy 3000 ft
Mostly cloudy 4500 ft
Mostly cloudy 8000 ft
2017/11/17 18:56 KNUW 171856Z 19008KT 10SM SCT030 BKN045 BKN080 11/03 A3010 RMK AO2 RAE04 SLP193 P0000 T01060028 $
KSHN - Shelton, Washington, USA
Distance from station: SW 50mi, 80km
Updated: Fri, 17-Nov-2017 10:53am PST
Few Clouds
Few Clouds
 Wind from SW
Wind: SW 10 mph , 17 km/h
Temperature: 46°F , 8°C
Wind Chill: 41°F , 5°C
Dew Point: 43°F , 6°C
Humidity: 87%
Barometer: 30.08 inHg , 1018.6 hPa
Clouds: Few Clouds
Visibility: 10 miles , 16 km
Cloud details: Few Clouds 1500 ft
2017/11/17 18:53 KSHN 171853Z AUTO 22009KT 10SM FEW015 08/06 A3008 RMK AO2 SLP189 T00830056